sensor_id;sensor_type;location;lat;lon;timestamp;P1;durP1;ratioP1;P2;durP2;ratioP2
2404;SDS011;1213;43.206;27.922;2022-07-15T00:00:06;3.67;;;2.43;;
2404;SDS011;1213;43.206;27.922;2022-07-15T00:02:34;2.20;;;1.53;;
2404;SDS011;1213;43.206;27.922;2022-07-15T00:04:59;1.80;;;1.70;;
2404;SDS011;1213;43.206;27.922;2022-07-15T00:07:25;1.40;;;1.30;;
2404;SDS011;1213;43.206;27.922;2022-07-15T00:09:51;1.37;;;1.27;;
2404;SDS011;1213;43.206;27.922;2022-07-15T00:12:35;1.37;;;1.27;;
2404;SDS011;1213;43.206;27.922;2022-07-15T00:15:00;1.67;;;1.57;;
2404;SDS011;1213;43.206;27.922;2022-07-15T00:17:26;2.10;;;1.53;;
2404;SDS011;1213;43.206;27.922;2022-07-15T00:19:51;2.10;;;1.50;;
2404;SDS011;1213;43.206;27.922;2022-07-15T00:22:18;1.43;;;1.33;;
2404;SDS011;1213;43.206;27.922;2022-07-15T00:24:43;1.93;;;1.83;;
2404;SDS011;1213;43.206;27.922;2022-07-15T00:27:09;2.37;;;1.67;;
2404;SDS011;1213;43.206;27.922;2022-07-15T00:29:34;2.77;;;1.77;;
2404;SDS011;1213;43.206;27.922;2022-07-15T00:32:00;6.07;;;2.63;;
2404;SDS011;1213;43.206;27.922;2022-07-15T00:34:26;2.80;;;1.87;;
2404;SDS011;1213;43.206;27.922;2022-07-15T00:36:51;3.13;;;1.60;;
2404;SDS011;1213;43.206;27.922;2022-07-15T00:39:17;4.53;;;1.93;;
2404;SDS011;1213;43.206;27.922;2022-07-15T00:41:42;3.50;;;2.07;;
2404;SDS011;1213;43.206;27.922;2022-07-15T00:44:08;2.87;;;2.63;;
2404;SDS011;1213;43.206;27.922;2022-07-15T00:46:35;3.47;;;2.10;;
2404;SDS011;1213;43.206;27.922;2022-07-15T00:49:02;2.67;;;2.47;;
2404;SDS011;1213;43.206;27.922;2022-07-15T00:51:43;3.33;;;2.40;;
2404;SDS011;1213;43.206;27.922;2022-07-15T00:54:12;2.60;;;2.40;;
2404;SDS011;1213;43.206;27.922;2022-07-15T00:56:40;2.30;;;1.87;;
2404;SDS011;1213;43.206;27.922;2022-07-15T00:59:09;3.47;;;2.53;;
2404;SDS011;1213;43.206;27.922;2022-07-15T01:01:35;4.23;;;2.70;;
2404;SDS011;1213;43.206;27.922;2022-07-15T01:04:01;2.30;;;2.13;;
2404;SDS011;1213;43.206;27.922;2022-07-15T01:06:28;2.03;;;1.83;;
2404;SDS011;1213;43.206;27.922;2022-07-15T01:08:54;2.90;;;2.20;;
2404;SDS011;1213;43.206;27.922;2022-07-15T01:11:20;5.37;;;2.10;;
2404;SDS011;1213;43.206;27.922;2022-07-15T01:13:45;3.60;;;3.00;;
2404;SDS011;1213;43.206;27.922;2022-07-15T01:16:11;2.60;;;2.40;;
2404;SDS011;1213;43.206;27.922;2022-07-15T01:18:36;3.23;;;2.67;;
2404;SDS011;1213;43.206;27.922;2022-07-15T01:21:02;4.20;;;2.60;;
2404;SDS011;1213;43.206;27.922;2022-07-15T01:23:27;2.57;;;2.37;;
2404;SDS011;1213;43.206;27.922;2022-07-15T01:25:53;2.87;;;2.43;;
2404;SDS011;1213;43.206;27.922;2022-07-15T01:28:18;3.37;;;2.60;;
2404;SDS011;1213;43.206;27.922;2022-07-15T01:30:44;2.53;;;2.07;;
2404;SDS011;1213;43.206;27.922;2022-07-15T01:33:10;2.20;;;2.00;;
2404;SDS011;1213;43.206;27.922;2022-07-15T01:35:36;2.03;;;1.77;;
2404;SDS011;1213;43.206;27.922;2022-07-15T01:38:01;2.60;;;2.37;;
2404;SDS011;1213;43.206;27.922;2022-07-15T01:40:27;2.70;;;2.10;;
2404;SDS011;1213;43.206;27.922;2022-07-15T01:42:52;3.00;;;2.37;;
2404;SDS011;1213;43.206;27.922;2022-07-15T01:45:18;3.07;;;2.70;;
2404;SDS011;1213;43.206;27.922;2022-07-15T01:47:44;2.17;;;1.87;;
2404;SDS011;1213;43.206;27.922;2022-07-15T01:50:11;3.40;;;2.80;;
2404;SDS011;1213;43.206;27.922;2022-07-15T01:52:37;3.50;;;3.20;;
2404;SDS011;1213;43.206;27.922;2022-07-15T01:55:03;3.20;;;2.83;;
2404;SDS011;1213;43.206;27.922;2022-07-15T01:57:29;3.00;;;2.70;;
2404;SDS011;1213;43.206;27.922;2022-07-15T01:59:55;2.47;;;2.27;;
2404;SDS011;1213;43.206;27.922;2022-07-15T02:02:21;6.90;;;3.60;;
2404;SDS011;1213;43.206;27.922;2022-07-15T02:04:46;2.83;;;2.50;;
2404;SDS011;1213;43.206;27.922;2022-07-15T02:07:12;7.40;;;3.00;;
2404;SDS011;1213;43.206;27.922;2022-07-15T02:09:37;2.70;;;2.50;;
2404;SDS011;1213;43.206;27.922;2022-07-15T02:12:03;3.90;;;2.80;;
2404;SDS011;1213;43.206;27.922;2022-07-15T02:14:28;6.90;;;4.53;;
2404;SDS011;1213;43.206;27.922;2022-07-15T02:16:54;3.20;;;2.90;;
2404;SDS011;1213;43.206;27.922;2022-07-15T02:19:20;4.33;;;3.20;;
2404;SDS011;1213;43.206;27.922;2022-07-15T02:21:46;5.60;;;3.60;;
2404;SDS011;1213;43.206;27.922;2022-07-15T02:24:12;4.03;;;3.50;;
2404;SDS011;1213;43.206;27.922;2022-07-15T02:26:38;2.60;;;2.40;;
2404;SDS011;1213;43.206;27.922;2022-07-15T02:29:04;2.43;;;2.23;;
2404;SDS011;1213;43.206;27.922;2022-07-15T02:31:30;4.17;;;3.63;;
2404;SDS011;1213;43.206;27.922;2022-07-15T02:33:55;5.90;;;3.50;;
2404;SDS011;1213;43.206;27.922;2022-07-15T02:36:21;8.10;;;3.10;;
2404;SDS011;1213;43.206;27.922;2022-07-15T02:38:47;3.77;;;3.37;;
2404;SDS011;1213;43.206;27.922;2022-07-15T02:41:12;3.30;;;3.00;;
2404;SDS011;1213;43.206;27.922;2022-07-15T02:43:38;5.07;;;3.03;;
2404;SDS011;1213;43.206;27.922;2022-07-15T02:46:03;3.47;;;3.17;;
2404;SDS011;1213;43.206;27.922;2022-07-15T02:48:29;2.90;;;2.30;;
2404;SDS011;1213;43.206;27.922;2022-07-15T02:50:55;4.13;;;3.60;;
2404;SDS011;1213;43.206;27.922;2022-07-15T02:53:20;6.87;;;3.60;;
2404;SDS011;1213;43.206;27.922;2022-07-15T02:55:49;4.90;;;2.90;;
2404;SDS011;1213;43.206;27.922;2022-07-15T02:58:14;2.70;;;2.50;;
2404;SDS011;1213;43.206;27.922;2022-07-15T03:00:40;4.40;;;3.70;;
2404;SDS011;1213;43.206;27.922;2022-07-15T03:03:05;4.37;;;3.20;;
2404;SDS011;1213;43.206;27.922;2022-07-15T03:05:31;7.50;;;4.57;;
2404;SDS011;1213;43.206;27.922;2022-07-15T03:07:56;3.50;;;3.03;;
2404;SDS011;1213;43.206;27.922;2022-07-15T03:10:22;5.50;;;4.43;;
2404;SDS011;1213;43.206;27.922;2022-07-15T03:12:47;3.33;;;3.00;;
2404;SDS011;1213;43.206;27.922;2022-07-15T03:15:13;5.80;;;3.30;;
2404;SDS011;1213;43.206;27.922;2022-07-15T03:17:38;3.70;;;3.40;;
2404;SDS011;1213;43.206;27.922;2022-07-15T03:20:08;7.27;;;4.57;;
2404;SDS011;1213;43.206;27.922;2022-07-15T03:22:35;5.70;;;4.00;;
2404;SDS011;1213;43.206;27.922;2022-07-15T03:25:00;4.10;;;3.80;;
2404;SDS011;1213;43.206;27.922;2022-07-15T03:27:26;5.53;;;3.57;;
2404;SDS011;1213;43.206;27.922;2022-07-15T03:29:52;3.90;;;3.40;;
2404;SDS011;1213;43.206;27.922;2022-07-15T03:32:17;3.40;;;3.10;;
2404;SDS011;1213;43.206;27.922;2022-07-15T03:34:45;3.17;;;2.87;;
2404;SDS011;1213;43.206;27.922;2022-07-15T03:37:11;3.87;;;3.50;;
2404;SDS011;1213;43.206;27.922;2022-07-15T03:39:37;7.63;;;3.97;;
2404;SDS011;1213;43.206;27.922;2022-07-15T03:42:03;3.30;;;3.10;;
2404;SDS011;1213;43.206;27.922;2022-07-15T03:44:29;3.40;;;3.07;;
2404;SDS011;1213;43.206;27.922;2022-07-15T03:46:54;5.97;;;4.13;;
2404;SDS011;1213;43.206;27.922;2022-07-15T03:49:20;4.97;;;3.10;;
2404;SDS011;1213;43.206;27.922;2022-07-15T03:51:45;5.13;;;3.53;;
2404;SDS011;1213;43.206;27.922;2022-07-15T03:54:11;3.90;;;3.13;;
2404;SDS011;1213;43.206;27.922;2022-07-15T03:56:36;4.13;;;2.63;;
2404;SDS011;1213;43.206;27.922;2022-07-15T03:59:02;4.27;;;2.87;;
2404;SDS011;1213;43.206;27.922;2022-07-15T04:01:28;13.90;;;3.97;;
2404;SDS011;1213;43.206;27.922;2022-07-15T04:03:53;3.63;;;3.37;;
2404;SDS011;1213;43.206;27.922;2022-07-15T04:06:19;3.53;;;3.23;;
2404;SDS011;1213;43.206;27.922;2022-07-15T04:08:46;5.60;;;3.90;;
2404;SDS011;1213;43.206;27.922;2022-07-15T04:11:11;5.93;;;4.03;;
2404;SDS011;1213;43.206;27.922;2022-07-15T04:13:38;9.83;;;4.43;;
2404;SDS011;1213;43.206;27.922;2022-07-15T04:16:04;8.23;;;3.57;;
2404;SDS011;1213;43.206;27.922;2022-07-15T04:18:31;3.60;;;3.27;;
2404;SDS011;1213;43.206;27.922;2022-07-15T04:20:56;4.70;;;3.50;;
2404;SDS011;1213;43.206;27.922;2022-07-15T04:23:22;5.13;;;3.30;;
2404;SDS011;1213;43.206;27.922;2022-07-15T04:25:48;4.23;;;3.40;;
2404;SDS011;1213;43.206;27.922;2022-07-15T04:28:17;3.53;;;3.23;;
2404;SDS011;1213;43.206;27.922;2022-07-15T04:30:43;8.47;;;4.87;;
2404;SDS011;1213;43.206;27.922;2022-07-15T04:33:08;4.30;;;3.90;;
2404;SDS011;1213;43.206;27.922;2022-07-15T04:35:34;4.67;;;4.27;;
2404;SDS011;1213;43.206;27.922;2022-07-15T04:37:59;4.47;;;4.13;;
2404;SDS011;1213;43.206;27.922;2022-07-15T04:40:25;3.70;;;3.20;;
2404;SDS011;1213;43.206;27.922;2022-07-15T04:42:50;3.23;;;2.93;;
2404;SDS011;1213;43.206;27.922;2022-07-15T04:45:16;4.27;;;3.10;;
2404;SDS011;1213;43.206;27.922;2022-07-15T04:47:41;3.70;;;3.40;;
2404;SDS011;1213;43.206;27.922;2022-07-15T04:50:07;2.80;;;2.50;;
2404;SDS011;1213;43.206;27.922;2022-07-15T04:52:52;3.90;;;3.40;;
2404;SDS011;1213;43.206;27.922;2022-07-15T04:55:17;5.17;;;3.53;;
2404;SDS011;1213;43.206;27.922;2022-07-15T04:57:43;4.20;;;3.60;;
2404;SDS011;1213;43.206;27.922;2022-07-15T05:00:09;4.87;;;2.80;;
2404;SDS011;1213;43.206;27.922;2022-07-15T05:02:35;4.07;;;3.37;;
2404;SDS011;1213;43.206;27.922;2022-07-15T05:05:00;3.40;;;3.10;;
2404;SDS011;1213;43.206;27.922;2022-07-15T05:07:26;6.87;;;3.17;;
2404;SDS011;1213;43.206;27.922;2022-07-15T05:09:51;6.40;;;3.93;;
2404;SDS011;1213;43.206;27.922;2022-07-15T05:12:17;3.10;;;2.80;;
2404;SDS011;1213;43.206;27.922;2022-07-15T05:14:43;3.73;;;2.73;;
2404;SDS011;1213;43.206;27.922;2022-07-15T05:17:09;3.07;;;2.70;;
2404;SDS011;1213;43.206;27.922;2022-07-15T05:19:34;2.60;;;2.40;;
2404;SDS011;1213;43.206;27.922;2022-07-15T05:22:00;3.10;;;2.80;;
2404;SDS011;1213;43.206;27.922;2022-07-15T05:24:26;3.80;;;3.50;;
2404;SDS011;1213;43.206;27.922;2022-07-15T05:26:52;3.13;;;2.93;;
2404;SDS011;1213;43.206;27.922;2022-07-15T05:29:18;4.07;;;3.23;;
2404;SDS011;1213;43.206;27.922;2022-07-15T05:31:47;4.13;;;3.73;;
2404;SDS011;1213;43.206;27.922;2022-07-15T05:34:13;3.50;;;2.77;;
2404;SDS011;1213;43.206;27.922;2022-07-15T05:36:38;2.63;;;2.43;;
2404;SDS011;1213;43.206;27.922;2022-07-15T05:39:04;3.47;;;3.17;;
2404;SDS011;1213;43.206;27.922;2022-07-15T05:41:29;3.97;;;3.13;;
2404;SDS011;1213;43.206;27.922;2022-07-15T05:43:57;3.00;;;2.70;;
2404;SDS011;1213;43.206;27.922;2022-07-15T05:46:22;3.60;;;2.83;;
2404;SDS011;1213;43.206;27.922;2022-07-15T05:48:48;5.23;;;3.30;;
2404;SDS011;1213;43.206;27.922;2022-07-15T05:51:14;4.13;;;2.57;;
2404;SDS011;1213;43.206;27.922;2022-07-15T05:53:39;3.60;;;3.30;;
2404;SDS011;1213;43.206;27.922;2022-07-15T05:56:05;4.23;;;3.83;;
2404;SDS011;1213;43.206;27.922;2022-07-15T05:58:31;4.00;;;3.40;;
2404;SDS011;1213;43.206;27.922;2022-07-15T06:00:56;3.93;;;3.40;;
2404;SDS011;1213;43.206;27.922;2022-07-15T06:03:23;3.27;;;2.90;;
2404;SDS011;1213;43.206;27.922;2022-07-15T06:05:48;3.10;;;2.80;;
2404;SDS011;1213;43.206;27.922;2022-07-15T06:08:13;3.80;;;3.00;;
2404;SDS011;1213;43.206;27.922;2022-07-15T06:10:40;3.67;;;3.33;;
2404;SDS011;1213;43.206;27.922;2022-07-15T06:13:07;3.40;;;3.00;;
2404;SDS011;1213;43.206;27.922;2022-07-15T06:15:33;5.97;;;4.10;;
2404;SDS011;1213;43.206;27.922;2022-07-15T06:17:58;5.17;;;2.60;;
2404;SDS011;1213;43.206;27.922;2022-07-15T06:20:24;3.80;;;2.80;;
2404;SDS011;1213;43.206;27.922;2022-07-15T06:22:50;3.77;;;3.47;;
2404;SDS011;1213;43.206;27.922;2022-07-15T06:25:15;4.03;;;2.67;;
2404;SDS011;1213;43.206;27.922;2022-07-15T06:27:41;3.83;;;3.40;;
2404;SDS011;1213;43.206;27.922;2022-07-15T06:30:06;5.67;;;2.93;;
2404;SDS011;1213;43.206;27.922;2022-07-15T06:32:34;3.17;;;2.87;;
2404;SDS011;1213;43.206;27.922;2022-07-15T06:35:00;2.80;;;2.60;;
2404;SDS011;1213;43.206;27.922;2022-07-15T06:37:26;7.37;;;2.93;;
2404;SDS011;1213;43.206;27.922;2022-07-15T06:39:54;4.07;;;2.40;;
2404;SDS011;1213;43.206;27.922;2022-07-15T06:42:23;3.90;;;2.90;;
2404;SDS011;1213;43.206;27.922;2022-07-15T06:44:49;5.87;;;3.10;;
2404;SDS011;1213;43.206;27.922;2022-07-15T06:47:14;5.37;;;2.87;;
2404;SDS011;1213;43.206;27.922;2022-07-15T06:49:43;6.40;;;2.23;;
2404;SDS011;1213;43.206;27.922;2022-07-15T06:52:08;3.23;;;2.93;;
2404;SDS011;1213;43.206;27.922;2022-07-15T06:54:34;2.60;;;2.40;;
2404;SDS011;1213;43.206;27.922;2022-07-15T06:57:00;2.10;;;1.90;;
2404;SDS011;1213;43.206;27.922;2022-07-15T06:59:26;14.10;;;2.07;;
2404;SDS011;1213;43.206;27.922;2022-07-15T07:01:52;2.37;;;1.90;;
2404;SDS011;1213;43.206;27.922;2022-07-15T07:04:18;2.40;;;2.20;;
2404;SDS011;1213;43.206;27.922;2022-07-15T07:06:44;1.60;;;1.50;;
2404;SDS011;1213;43.206;27.922;2022-07-15T07:09:10;4.80;;;2.20;;
2404;SDS011;1213;43.206;27.922;2022-07-15T07:11:37;2.13;;;1.93;;
2404;SDS011;1213;43.206;27.922;2022-07-15T07:14:03;2.20;;;1.67;;
2404;SDS011;1213;43.206;27.922;2022-07-15T07:16:28;3.00;;;2.13;;
2404;SDS011;1213;43.206;27.922;2022-07-15T07:18:54;2.23;;;1.97;;
2404;SDS011;1213;43.206;27.922;2022-07-15T07:21:19;1.63;;;1.53;;
2404;SDS011;1213;43.206;27.922;2022-07-15T07:23:45;1.80;;;1.70;;
2404;SDS011;1213;43.206;27.922;2022-07-15T07:26:11;2.07;;;1.73;;
2404;SDS011;1213;43.206;27.922;2022-07-15T07:28:37;2.03;;;1.90;;
2404;SDS011;1213;43.206;27.922;2022-07-15T07:31:05;2.00;;;1.50;;
2404;SDS011;1213;43.206;27.922;2022-07-15T07:33:35;2.00;;;1.60;;
2404;SDS011;1213;43.206;27.922;2022-07-15T07:36:01;2.40;;;2.13;;
2404;SDS011;1213;43.206;27.922;2022-07-15T07:38:29;2.10;;;1.90;;
2404;SDS011;1213;43.206;27.922;2022-07-15T07:40:55;3.63;;;2.70;;
2404;SDS011;1213;43.206;27.922;2022-07-15T07:43:20;2.60;;;2.40;;
2404;SDS011;1213;43.206;27.922;2022-07-15T07:45:46;2.60;;;2.40;;
2404;SDS011;1213;43.206;27.922;2022-07-15T07:48:12;3.20;;;2.70;;
2404;SDS011;1213;43.206;27.922;2022-07-15T07:50:38;2.47;;;2.27;;
2404;SDS011;1213;43.206;27.922;2022-07-15T07:53:04;2.80;;;2.47;;
2404;SDS011;1213;43.206;27.922;2022-07-15T07:55:30;2.67;;;2.47;;
2404;SDS011;1213;43.206;27.922;2022-07-15T07:57:57;2.73;;;2.53;;
2404;SDS011;1213;43.206;27.922;2022-07-15T08:00:23;1.97;;;1.87;;
2404;SDS011;1213;43.206;27.922;2022-07-15T08:02:51;2.90;;;2.17;;
2404;SDS011;1213;43.206;27.922;2022-07-15T08:05:17;4.00;;;2.10;;
2404;SDS011;1213;43.206;27.922;2022-07-15T08:07:43;1.87;;;1.77;;
2404;SDS011;1213;43.206;27.922;2022-07-15T08:10:09;1.60;;;1.50;;
2404;SDS011;1213;43.206;27.922;2022-07-15T08:12:36;2.10;;;1.90;;
2404;SDS011;1213;43.206;27.922;2022-07-15T08:15:06;2.80;;;2.20;;
2404;SDS011;1213;43.206;27.922;2022-07-15T08:17:33;1.60;;;1.50;;
2404;SDS011;1213;43.206;27.922;2022-07-15T08:19:59;2.60;;;2.17;;
2404;SDS011;1213;43.206;27.922;2022-07-15T08:22:25;3.93;;;2.90;;
2404;SDS011;1213;43.206;27.922;2022-07-15T08:24:50;5.07;;;4.60;;
2404;SDS011;1213;43.206;27.922;2022-07-15T08:27:16;2.47;;;2.27;;
2404;SDS011;1213;43.206;27.922;2022-07-15T08:29:42;1.80;;;1.70;;
2404;SDS011;1213;43.206;27.922;2022-07-15T08:32:08;1.73;;;1.63;;
2404;SDS011;1213;43.206;27.922;2022-07-15T08:34:33;2.13;;;1.60;;
2404;SDS011;1213;43.206;27.922;2022-07-15T08:36:59;1.90;;;1.80;;
2404;SDS011;1213;43.206;27.922;2022-07-15T08:39:24;1.80;;;1.70;;
2404;SDS011;1213;43.206;27.922;2022-07-15T08:41:51;1.40;;;1.30;;
2404;SDS011;1213;43.206;27.922;2022-07-15T08:44:17;2.50;;;1.40;;
2404;SDS011;1213;43.206;27.922;2022-07-15T08:46:44;2.20;;;2.03;;
2404;SDS011;1213;43.206;27.922;2022-07-15T08:49:13;1.77;;;1.57;;
2404;SDS011;1213;43.206;27.922;2022-07-15T08:51:44;1.80;;;1.70;;
2404;SDS011;1213;43.206;27.922;2022-07-15T08:54:12;2.10;;;1.90;;
2404;SDS011;1213;43.206;27.922;2022-07-15T08:56:38;2.60;;;2.40;;
2404;SDS011;1213;43.206;27.922;2022-07-15T08:59:05;5.57;;;2.10;;
2404;SDS011;1213;43.206;27.922;2022-07-15T09:01:31;2.07;;;1.67;;
2404;SDS011;1213;43.206;27.922;2022-07-15T09:03:58;1.60;;;1.50;;
2404;SDS011;1213;43.206;27.922;2022-07-15T09:08:57;2.03;;;1.70;;
2404;SDS011;1213;43.206;27.922;2022-07-15T09:11:28;3.20;;;2.90;;
2404;SDS011;1213;43.206;27.922;2022-07-15T09:13:57;1.70;;;1.60;;
2404;SDS011;1213;43.206;27.922;2022-07-15T09:16:25;1.73;;;1.63;;
2404;SDS011;1213;43.206;27.922;2022-07-15T09:18:51;3.03;;;2.80;;
2404;SDS011;1213;43.206;27.922;2022-07-15T09:21:18;2.30;;;1.53;;
2404;SDS011;1213;43.206;27.922;2022-07-15T09:23:51;2.00;;;1.90;;
2404;SDS011;1213;43.206;27.922;2022-07-15T09:26:22;1.60;;;1.50;;
2404;SDS011;1213;43.206;27.922;2022-07-15T09:28:57;5.00;;;4.70;;
2404;SDS011;1213;43.206;27.922;2022-07-15T09:31:31;1.90;;;1.80;;
2404;SDS011;1213;43.206;27.922;2022-07-15T09:34:21;1.77;;;1.67;;
2404;SDS011;1213;43.206;27.922;2022-07-15T09:36:50;2.13;;;2.03;;
2404;SDS011;1213;43.206;27.922;2022-07-15T09:39:22;1.67;;;1.20;;
2404;SDS011;1213;43.206;27.922;2022-07-15T09:41:49;2.27;;;2.03;;
2404;SDS011;1213;43.206;27.922;2022-07-15T09:44:19;1.67;;;1.57;;
2404;SDS011;1213;43.206;27.922;2022-07-15T09:46:52;1.57;;;1.47;;
2404;SDS011;1213;43.206;27.922;2022-07-15T09:51:55;1.70;;;1.60;;
2404;SDS011;1213;43.206;27.922;2022-07-15T09:54:25;2.80;;;1.67;;
2404;SDS011;1213;43.206;27.922;2022-07-15T09:56:56;1.90;;;1.80;;
2404;SDS011;1213;43.206;27.922;2022-07-15T09:59:25;2.00;;;1.90;;
2404;SDS011;1213;43.206;27.922;2022-07-15T10:01:51;1.40;;;1.30;;
2404;SDS011;1213;43.206;27.922;2022-07-15T10:04:18;1.83;;;1.70;;
2404;SDS011;1213;43.206;27.922;2022-07-15T10:06:46;1.70;;;1.60;;
2404;SDS011;1213;43.206;27.922;2022-07-15T10:09:13;1.60;;;1.50;;
2404;SDS011;1213;43.206;27.922;2022-07-15T10:11:40;2.03;;;1.50;;
2404;SDS011;1213;43.206;27.922;2022-07-15T10:28:31;2.00;;;1.90;;
2404;SDS011;1213;43.206;27.922;2022-07-15T10:33:42;6.20;;;1.80;;
2404;SDS011;1213;43.206;27.922;2022-07-15T10:39:08;1.70;;;1.60;;
2404;SDS011;1213;43.206;27.922;2022-07-15T10:41:53;1.60;;;1.50;;
2404;SDS011;1213;43.206;27.922;2022-07-15T10:44:19;2.47;;;2.17;;
2404;SDS011;1213;43.206;27.922;2022-07-15T10:46:45;1.70;;;1.60;;
2404;SDS011;1213;43.206;27.922;2022-07-15T10:54:06;1.40;;;1.27;;
2404;SDS011;1213;43.206;27.922;2022-07-15T10:56:43;1.80;;;1.70;;
2404;SDS011;1213;43.206;27.922;2022-07-15T10:59:11;2.57;;;2.37;;
2404;SDS011;1213;43.206;27.922;2022-07-15T11:01:43;2.00;;;1.90;;
2404;SDS011;1213;43.206;27.922;2022-07-15T11:07:38;1.73;;;1.60;;
2404;SDS011;1213;43.206;27.922;2022-07-15T11:12:21;1.70;;;1.60;;
2404;SDS011;1213;43.206;27.922;2022-07-15T11:14:50;2.10;;;2.00;;
2404;SDS011;1213;43.206;27.922;2022-07-15T11:19:58;1.70;;;1.60;;
2404;SDS011;1213;43.206;27.922;2022-07-15T11:22:27;1.70;;;1.43;;
2404;SDS011;1213;43.206;27.922;2022-07-15T11:24:53;1.70;;;1.60;;
2404;SDS011;1213;43.206;27.922;2022-07-15T11:27:21;1.57;;;1.47;;
2404;SDS011;1213;43.206;27.922;2022-07-15T11:29:49;1.87;;;1.73;;
2404;SDS011;1213;43.206;27.922;2022-07-15T11:32:32;2.40;;;1.60;;
2404;SDS011;1213;43.206;27.922;2022-07-15T11:35:01;2.13;;;1.63;;
2404;SDS011;1213;43.206;27.922;2022-07-15T11:37:32;1.43;;;1.33;;
2404;SDS011;1213;43.206;27.922;2022-07-15T11:42:34;1.80;;;1.70;;
2404;SDS011;1213;43.206;27.922;2022-07-15T11:45:38;1.30;;;1.20;;
2404;SDS011;1213;43.206;27.922;2022-07-15T11:48:04;1.97;;;1.40;;
2404;SDS011;1213;43.206;27.922;2022-07-15T11:50:34;1.30;;;1.20;;
2404;SDS011;1213;43.206;27.922;2022-07-15T11:53:01;1.90;;;1.80;;
2404;SDS011;1213;43.206;27.922;2022-07-15T11:55:46;2.30;;;1.00;;
2404;SDS011;1213;43.206;27.922;2022-07-15T11:59:04;1.50;;;1.40;;
2404;SDS011;1213;43.206;27.922;2022-07-15T12:01:16;1.40;;;1.07;;
2404;SDS011;1213;43.206;27.922;2022-07-15T12:03:49;1.30;;;1.20;;
2404;SDS011;1213;43.206;27.922;2022-07-15T12:13:46;1.40;;;1.30;;
2404;SDS011;1213;43.206;27.922;2022-07-15T12:16:14;2.00;;;1.63;;
2404;SDS011;1213;43.206;27.922;2022-07-15T12:18:44;1.40;;;1.30;;
2404;SDS011;1213;43.206;27.922;2022-07-15T12:21:10;1.50;;;1.30;;
2404;SDS011;1213;43.206;27.922;2022-07-15T12:23:36;2.57;;;2.13;;
2404;SDS011;1213;43.206;27.922;2022-07-15T12:26:06;1.50;;;1.23;;
2404;SDS011;1213;43.206;27.922;2022-07-15T12:28:34;1.40;;;1.20;;
2404;SDS011;1213;43.206;27.922;2022-07-15T12:31:01;3.67;;;3.37;;
2404;SDS011;1213;43.206;27.922;2022-07-15T12:33:27;1.67;;;1.23;;
2404;SDS011;1213;43.206;27.922;2022-07-15T12:36:14;2.33;;;1.50;;
2404;SDS011;1213;43.206;27.922;2022-07-15T12:38:41;1.43;;;1.33;;
2404;SDS011;1213;43.206;27.922;2022-07-15T12:41:08;3.10;;;1.53;;
2404;SDS011;1213;43.206;27.922;2022-07-15T12:43:48;1.83;;;1.50;;
2404;SDS011;1213;43.206;27.922;2022-07-15T12:46:18;1.57;;;1.33;;
2404;SDS011;1213;43.206;27.922;2022-07-15T12:48:48;2.03;;;1.93;;
2404;SDS011;1213;43.206;27.922;2022-07-15T12:51:15;1.40;;;1.30;;
2404;SDS011;1213;43.206;27.922;2022-07-15T12:53:42;1.20;;;0.97;;
2404;SDS011;1213;43.206;27.922;2022-07-15T12:56:08;1.10;;;0.97;;
2404;SDS011;1213;43.206;27.922;2022-07-15T12:58:34;1.20;;;1.10;;
2404;SDS011;1213;43.206;27.922;2022-07-15T13:03:39;1.40;;;1.30;;
2404;SDS011;1213;43.206;27.922;2022-07-15T13:06:05;1.20;;;1.10;;
2404;SDS011;1213;43.206;27.922;2022-07-15T13:08:32;1.10;;;0.87;;
2404;SDS011;1213;43.206;27.922;2022-07-15T13:11:02;1.50;;;1.27;;
2404;SDS011;1213;43.206;27.922;2022-07-15T13:13:30;3.60;;;2.33;;
2404;SDS011;1213;43.206;27.922;2022-07-15T13:15:57;1.40;;;1.30;;
2404;SDS011;1213;43.206;27.922;2022-07-15T13:18:24;2.30;;;1.97;;
2404;SDS011;1213;43.206;27.922;2022-07-15T13:20:50;1.93;;;1.73;;
2404;SDS011;1213;43.206;27.922;2022-07-15T13:23:17;1.33;;;1.23;;
2404;SDS011;1213;43.206;27.922;2022-07-15T13:25:42;17.00;;;9.40;;
2404;SDS011;1213;43.206;27.922;2022-07-15T13:28:08;1.90;;;1.50;;
2404;SDS011;1213;43.206;27.922;2022-07-15T13:30:35;1.63;;;1.53;;
2404;SDS011;1213;43.206;27.922;2022-07-15T13:33:01;1.77;;;1.40;;
2404;SDS011;1213;43.206;27.922;2022-07-15T13:35:27;1.93;;;1.23;;
2404;SDS011;1213;43.206;27.922;2022-07-15T13:37:53;2.73;;;1.67;;
2404;SDS011;1213;43.206;27.922;2022-07-15T13:40:18;1.63;;;1.53;;
2404;SDS011;1213;43.206;27.922;2022-07-15T13:42:44;2.70;;;2.00;;
2404;SDS011;1213;43.206;27.922;2022-07-15T13:45:11;1.07;;;0.97;;
2404;SDS011;1213;43.206;27.922;2022-07-15T13:47:37;1.00;;;0.90;;
2404;SDS011;1213;43.206;27.922;2022-07-15T13:50:03;1.17;;;1.07;;
2404;SDS011;1213;43.206;27.922;2022-07-15T13:52:48;1.20;;;1.10;;
2404;SDS011;1213;43.206;27.922;2022-07-15T13:55:16;1.47;;;1.37;;
2404;SDS011;1213;43.206;27.922;2022-07-15T13:57:43;1.50;;;1.10;;
2404;SDS011;1213;43.206;27.922;2022-07-15T14:00:10;1.40;;;1.20;;
2404;SDS011;1213;43.206;27.922;2022-07-15T14:02:38;1.40;;;1.30;;
2404;SDS011;1213;43.206;27.922;2022-07-15T14:05:04;1.70;;;1.10;;
2404;SDS011;1213;43.206;27.922;2022-07-15T14:07:31;1.50;;;1.40;;
2404;SDS011;1213;43.206;27.922;2022-07-15T14:09:57;1.00;;;0.90;;
2404;SDS011;1213;43.206;27.922;2022-07-15T14:12:23;1.10;;;1.00;;
2404;SDS011;1213;43.206;27.922;2022-07-15T14:14:48;1.27;;;1.10;;
2404;SDS011;1213;43.206;27.922;2022-07-15T14:17:14;2.27;;;1.30;;
2404;SDS011;1213;43.206;27.922;2022-07-15T14:19:39;3.23;;;2.17;;
2404;SDS011;1213;43.206;27.922;2022-07-15T14:22:05;1.93;;;1.83;;
2404;SDS011;1213;43.206;27.922;2022-07-15T14:24:30;1.87;;;1.13;;
2404;SDS011;1213;43.206;27.922;2022-07-15T14:26:56;1.40;;;1.20;;
2404;SDS011;1213;43.206;27.922;2022-07-15T14:29:22;1.17;;;1.07;;
2404;SDS011;1213;43.206;27.922;2022-07-15T14:31:47;1.53;;;1.37;;
2404;SDS011;1213;43.206;27.922;2022-07-15T14:34:13;1.13;;;1.00;;
2404;SDS011;1213;43.206;27.922;2022-07-15T14:36:38;1.30;;;0.97;;
2404;SDS011;1213;43.206;27.922;2022-07-15T14:39:04;1.13;;;1.03;;
2404;SDS011;1213;43.206;27.922;2022-07-15T14:41:30;1.70;;;1.40;;
2404;SDS011;1213;43.206;27.922;2022-07-15T14:43:55;1.17;;;1.07;;
2404;SDS011;1213;43.206;27.922;2022-07-15T14:46:21;1.33;;;1.23;;
2404;SDS011;1213;43.206;27.922;2022-07-15T14:48:47;1.30;;;1.20;;
2404;SDS011;1213;43.206;27.922;2022-07-15T14:51:13;1.40;;;1.30;;
2404;SDS011;1213;43.206;27.922;2022-07-15T14:53:38;1.70;;;1.17;;
2404;SDS011;1213;43.206;27.922;2022-07-15T14:56:04;1.30;;;1.20;;
2404;SDS011;1213;43.206;27.922;2022-07-15T14:58:30;1.20;;;1.10;;
2404;SDS011;1213;43.206;27.922;2022-07-15T15:00:55;1.23;;;1.13;;
2404;SDS011;1213;43.206;27.922;2022-07-15T15:03:21;1.33;;;1.23;;
2404;SDS011;1213;43.206;27.922;2022-07-15T15:05:46;1.43;;;1.30;;
2404;SDS011;1213;43.206;27.922;2022-07-15T15:08:12;2.80;;;1.30;;
2404;SDS011;1213;43.206;27.922;2022-07-15T15:10:39;1.40;;;1.30;;
2404;SDS011;1213;43.206;27.922;2022-07-15T15:13:04;1.47;;;1.37;;
2404;SDS011;1213;43.206;27.922;2022-07-15T15:15:30;1.40;;;1.20;;
2404;SDS011;1213;43.206;27.922;2022-07-15T15:17:55;1.97;;;1.00;;
2404;SDS011;1213;43.206;27.922;2022-07-15T15:20:21;1.47;;;1.20;;
2404;SDS011;1213;43.206;27.922;2022-07-15T15:22:46;2.17;;;1.97;;
2404;SDS011;1213;43.206;27.922;2022-07-15T15:25:13;2.40;;;1.60;;
2404;SDS011;1213;43.206;27.922;2022-07-15T15:27:39;1.37;;;1.27;;
2404;SDS011;1213;43.206;27.922;2022-07-15T15:30:06;1.20;;;1.10;;
2404;SDS011;1213;43.206;27.922;2022-07-15T15:32:33;1.80;;;1.70;;
2404;SDS011;1213;43.206;27.922;2022-07-15T15:34:59;1.47;;;1.37;;
2404;SDS011;1213;43.206;27.922;2022-07-15T15:37:24;1.67;;;1.57;;
2404;SDS011;1213;43.206;27.922;2022-07-15T15:39:50;1.10;;;1.00;;
2404;SDS011;1213;43.206;27.922;2022-07-15T15:42:16;1.83;;;1.30;;
2404;SDS011;1213;43.206;27.922;2022-07-15T15:44:41;1.60;;;1.50;;
2404;SDS011;1213;43.206;27.922;2022-07-15T15:47:07;1.60;;;1.40;;
2404;SDS011;1213;43.206;27.922;2022-07-15T15:49:33;1.67;;;1.57;;